createdAt,value
2023-04-23T12:29:10.986Z,3428.00
2023-04-23T12:31:11.286Z,4864.00
2023-04-23T12:33:11.568Z,4836.00
2023-04-23T12:35:11.862Z,4968.00
2023-04-23T12:37:12.170Z,5836.00
2023-04-23T12:39:12.453Z,5964.00
2023-04-23T12:41:17.748Z,5600.00
2023-04-23T12:43:18.060Z,3628.00
2023-04-23T12:45:18.404Z,5308.00
2023-04-23T12:47:18.688Z,5764.00
2023-04-23T12:49:19.008Z,6084.00
2023-04-23T12:51:19.323Z,5640.00
2023-04-23T12:53:19.570Z,6968.00
2023-04-23T12:55:19.926Z,6824.00
2023-04-23T12:57:21.216Z,6708.00
2023-04-23T12:59:21.527Z,6576.00
2023-04-23T13:01:21.878Z,6352.00
2023-04-23T13:03:22.228Z,7088.00
2023-04-23T13:05:22.593Z,6368.00
2023-04-23T13:07:22.891Z,6900.00
2023-04-23T13:09:24.267Z,7112.00
2023-04-23T13:11:26.224Z,7332.00
2023-04-23T13:13:26.582Z,5520.00
2023-04-23T13:15:27.302Z,8224.00
2023-04-23T13:17:27.716Z,8176.00
2023-04-23T13:19:28.005Z,8280.00
2023-04-23T13:21:33.144Z,8472.00
2023-04-23T13:23:33.484Z,7828.00
2023-04-23T13:25:34.090Z,6904.00
2023-04-23T13:27:34.482Z,4524.00
2023-04-23T13:29:34.756Z,7320.00
2023-04-23T13:31:35.480Z,8316.00
2023-04-23T13:33:36.016Z,7924.00
2023-04-23T13:35:36.387Z,5576.00
2023-04-23T13:37:36.681Z,4048.00
2023-04-23T13:39:38.741Z,4820.00
2023-04-23T13:41:40.275Z,6448.00
2023-04-23T13:43:40.576Z,6060.00
2023-04-23T13:45:40.991Z,6332.00
2023-04-23T13:47:41.396Z,6540.00
2023-04-23T13:49:42.022Z,6932.00
2023-04-23T13:51:42.510Z,8472.00
2023-04-23T13:53:42.876Z,9240.00
2023-04-23T13:55:43.167Z,7612.00
2023-04-23T13:57:43.450Z,4944.00
2023-04-23T13:59:44.002Z,5512.00
2023-04-23T14:01:44.519Z,7028.00
2023-04-23T14:03:44.901Z,5524.00
2023-04-23T14:05:45.144Z,6412.00
2023-04-23T14:07:45.495Z,8324.00
2023-04-23T14:09:45.872Z,7760.00
2023-04-23T14:11:46.151Z,7668.00
2023-04-23T14:13:46.486Z,7484.00
2023-04-23T14:15:46.806Z,7048.00
2023-04-23T14:17:47.132Z,6612.00
2023-04-23T14:19:47.445Z,5624.00
2023-04-23T14:21:47.767Z,6768.00
2023-04-23T14:23:48.102Z,6308.00
2023-04-23T14:25:48.361Z,6508.00
2023-04-23T14:27:48.677Z,5780.00
2023-04-23T14:29:49.053Z,5864.00
2023-04-23T14:31:49.359Z,5456.00
2023-04-23T14:33:49.636Z,5896.00
2023-04-23T14:35:49.921Z,6132.00
2023-04-23T14:37:50.234Z,6216.00
2023-04-23T14:39:50.508Z,6156.00
2023-04-23T14:41:50.872Z,6028.00
2023-04-23T14:43:51.174Z,5740.00
2023-04-23T14:45:51.555Z,5460.00
2023-04-23T14:47:51.851Z,5352.00
2023-04-23T14:49:52.159Z,5348.00
2023-04-23T14:51:52.472Z,5364.00
2023-04-23T14:53:54.722Z,4992.00
2023-04-23T14:55:56.792Z,5036.00
2023-04-23T14:57:57.119Z,4568.00
2023-04-23T14:59:57.499Z,4528.00
2023-04-23T15:01:57.809Z,4332.00
2023-04-23T15:03:58.163Z,4328.00
2023-04-23T15:05:58.506Z,4428.00
2023-04-23T15:07:58.769Z,4040.00
2023-04-23T15:09:59.087Z,3980.00
2023-04-23T15:11:59.384Z,3396.00
2023-04-23T15:13:59.679Z,3500.00
2023-04-23T15:16:00.050Z,3508.00
2023-04-23T15:18:00.502Z,4120.00
2023-04-23T15:20:00.818Z,3960.00
2023-04-23T15:22:01.114Z,3872.00
2023-04-23T15:24:01.400Z,3392.00
2023-04-23T15:26:01.699Z,3808.00
2023-04-23T15:28:02.063Z,4720.00
2023-04-23T15:30:02.347Z,5376.00
2023-04-23T15:32:02.704Z,4956.00
2023-04-23T15:34:03.084Z,4744.00
2023-04-23T15:36:03.409Z,4348.00
2023-04-23T15:38:03.674Z,4168.00
2023-04-23T15:40:04.134Z,4128.00
2023-04-23T15:42:04.741Z,4028.00
2023-04-23T15:44:05.567Z,3668.00
2023-04-23T15:46:05.961Z,3428.00
2023-04-23T15:48:06.645Z,3136.00
2023-04-23T15:50:12.344Z,2900.00
2023-04-23T15:52:12.613Z,2236.00
2023-04-23T15:54:12.931Z,1456.00
2023-04-23T15:56:13.315Z,840.00
2023-04-23T15:58:13.616Z,564.00
2023-04-23T16:00:14.390Z,420.00
2023-04-23T16:02:14.719Z,380.00
2023-04-23T16:04:15.146Z,308.00
2023-04-23T16:06:15.674Z,248.00
2023-04-23T16:08:15.994Z,252.00
2023-04-23T16:10:16.254Z,244.00
2023-04-23T16:12:16.594Z,192.00
2023-04-23T16:14:16.987Z,132.00
2023-04-23T16:16:17.518Z,116.00
2023-04-23T16:18:17.900Z,156.00
2023-04-23T16:20:18.187Z,192.00
2023-04-23T16:22:18.510Z,204.00
2023-04-23T16:24:18.841Z,228.00
2023-04-23T16:26:19.142Z,232.00
2023-04-23T16:28:19.421Z,288.00
2023-04-23T16:30:19.755Z,352.00
2023-04-23T16:32:20.093Z,412.00
2023-04-23T16:34:20.401Z,492.00
2023-04-23T16:36:20.692Z,640.00
2023-04-23T16:38:21.026Z,688.00
2023-04-23T16:40:21.331Z,808.00
2023-04-23T16:42:21.617Z,816.00
2023-04-23T16:44:21.920Z,860.00
2023-04-23T16:46:22.260Z,1232.00
2023-04-23T16:48:22.589Z,1524.00
2023-04-23T16:50:22.889Z,1228.00
2023-04-23T16:52:23.201Z,1148.00
2023-04-23T16:54:23.532Z,968.00
2023-04-23T16:56:23.802Z,800.00
2023-04-23T16:58:24.153Z,672.00
2023-04-23T17:00:24.416Z,656.00
2023-04-23T17:02:24.951Z,712.00
2023-04-23T17:04:25.437Z,544.00
2023-04-23T17:06:25.775Z,468.00
2023-04-23T17:08:26.084Z,436.00
2023-04-23T17:10:26.412Z,500.00
2023-04-23T17:12:26.738Z,588.00
2023-04-23T17:14:27.024Z,616.00
2023-04-23T17:16:27.423Z,556.00
2023-04-23T17:18:27.825Z,460.00
2023-04-23T17:20:28.081Z,436.00
2023-04-23T17:22:28.399Z,492.00
2023-04-23T17:24:28.688Z,528.00
2023-04-23T17:26:28.969Z,640.00
2023-04-23T17:28:29.306Z,660.00
2023-04-23T17:30:29.601Z,572.00
2023-04-23T17:32:29.977Z,528.00
2023-04-23T17:34:31.442Z,352.00
2023-04-23T17:36:31.823Z,392.00
2023-04-23T17:38:32.143Z,416.00
2023-04-23T17:40:32.420Z,448.00
2023-04-23T17:42:32.731Z,548.00
2023-04-23T17:44:33.013Z,656.00
2023-04-23T17:46:33.327Z,644.00
2023-04-23T17:48:33.637Z,628.00
2023-04-23T17:50:33.949Z,576.00
2023-04-23T17:52:34.266Z,528.00
2023-04-23T17:54:34.543Z,496.00
2023-04-23T17:56:34.841Z,448.00
2023-04-23T17:58:36.060Z,372.00
2023-04-23T18:00:37.813Z,272.00
2023-04-23T18:02:38.156Z,212.00
2023-04-23T18:04:38.597Z,188.00
2023-04-23T18:06:39.601Z,160.00
2023-04-23T18:08:41.911Z,144.00
2023-04-23T18:10:42.991Z,148.00
2023-04-23T18:12:43.584Z,120.00
2023-04-23T18:14:43.875Z,116.00
2023-04-23T18:16:44.251Z,112.00
2023-04-23T18:18:45.198Z,92.00
2023-04-23T18:20:45.576Z,88.00
2023-04-23T18:22:45.903Z,76.00
2023-04-23T18:24:46.233Z,64.00
2023-04-23T18:26:46.509Z,60.00
2023-04-23T18:28:46.832Z,52.00
2023-04-23T18:30:47.165Z,48.00
2023-04-23T18:32:52.351Z,44.00
2023-04-23T18:34:52.679Z,40.00
2023-04-23T18:36:52.967Z,32.00
2023-04-23T18:38:53.328Z,28.00
2023-04-23T18:40:53.733Z,20.00
2023-04-23T18:42:54.113Z,16.00
2023-04-23T18:44:55.704Z,12.00
2023-04-23T18:46:56.026Z,8.00
2023-04-23T18:48:56.325Z,4.00
2023-04-23T18:50:56.682Z,4.00
2023-04-23T18:53:05.370Z,4.00
2023-04-23T18:55:05.794Z,0.00
2023-04-23T18:57:06.263Z,4.00
2023-04-23T18:59:06.551Z,4.00
2023-04-23T19:01:06.997Z,0.00
2023-04-23T19:03:19.462Z,0.00
2023-04-23T19:05:12.597Z,0.00
2023-04-23T19:07:12.930Z,0.00
2023-04-23T19:09:13.307Z,0.00
2023-04-23T19:11:13.616Z,0.00
2023-04-23T19:13:13.947Z,0.00
2023-04-23T19:15:14.201Z,0.00
2023-04-23T19:17:15.402Z,0.00
2023-04-23T19:19:16.507Z,0.00
2023-04-23T19:21:16.852Z,0.00
2023-04-23T19:23:17.101Z,0.00
2023-04-23T19:25:17.406Z,0.00
2023-04-23T19:27:17.741Z,0.00
2023-04-23T19:29:18.277Z,0.00
2023-04-23T19:31:18.644Z,0.00
2023-04-23T19:33:18.928Z,0.00
2023-04-23T19:35:19.277Z,0.00
2023-04-23T19:37:19.566Z,0.00
2023-04-23T19:39:20.114Z,0.00
2023-04-23T19:41:20.433Z,0.00
2023-04-23T19:43:21.005Z,0.00
2023-04-23T19:45:21.278Z,0.00
2023-04-23T19:47:21.679Z,0.00
2023-04-23T19:49:21.976Z,0.00
2023-04-23T19:51:22.284Z,0.00
2023-04-23T19:53:22.845Z,0.00
2023-04-23T19:55:23.127Z,0.00
2023-04-23T19:57:23.409Z,0.00
2023-04-23T19:59:23.753Z,0.00
2023-04-23T20:01:24.145Z,0.00
2023-04-23T20:03:24.774Z,0.00
2023-04-23T20:05:25.233Z,0.00
2023-04-23T20:07:25.585Z,0.00
2023-04-23T20:09:25.906Z,0.00
2023-04-23T20:11:26.533Z,0.00
2023-04-23T20:13:26.858Z,0.00
2023-04-23T20:15:27.149Z,0.00
2023-04-23T20:17:27.607Z,0.00
2023-04-23T20:19:32.621Z,0.00
2023-04-23T20:21:32.923Z,0.00
2023-04-23T20:23:37.658Z,0.00
2023-04-23T20:25:38.094Z,0.00
2023-04-23T20:27:38.501Z,0.00
2023-04-23T20:29:38.770Z,0.00
2023-04-23T20:31:39.167Z,0.00
2023-04-23T20:33:39.463Z,0.00
2023-04-23T20:35:39.772Z,0.00
2023-04-23T20:37:40.079Z,0.00
2023-04-23T20:39:40.673Z,0.00
2023-04-23T20:41:41.072Z,0.00
2023-04-23T20:43:41.681Z,0.00
2023-04-23T20:45:42.018Z,0.00
2023-04-23T20:47:42.775Z,0.00
2023-04-23T20:49:43.468Z,0.00
2023-04-23T20:51:44.060Z,0.00
2023-04-23T20:53:44.846Z,0.00
2023-04-23T20:55:45.261Z,0.00
2023-04-23T20:57:45.680Z,0.00
2023-04-23T20:59:45.916Z,0.00
2023-04-23T21:01:46.375Z,0.00
2023-04-23T21:03:46.892Z,0.00
2023-04-23T21:05:47.230Z,0.00
2023-04-23T21:07:47.679Z,0.00
2023-04-23T21:09:47.976Z,0.00
2023-04-23T21:11:48.254Z,0.00
2023-04-23T21:13:48.565Z,0.00
2023-04-23T21:15:48.886Z,0.00
2023-04-23T21:17:49.381Z,0.00
2023-04-23T21:19:49.665Z,0.00
2023-04-23T21:21:50.031Z,0.00
2023-04-23T21:23:50.292Z,0.00
2023-04-23T21:25:50.682Z,0.00
2023-04-23T21:27:51.021Z,0.00
2023-04-23T21:29:51.358Z,0.00
2023-04-23T21:31:51.953Z,0.00
2023-04-23T21:33:52.540Z,0.00
2023-04-23T21:35:53.417Z,0.00
2023-04-23T21:37:53.766Z,0.00
2023-04-23T21:39:54.177Z,0.00
2023-04-23T21:41:54.541Z,0.00
2023-04-23T21:43:54.876Z,0.00
2023-04-23T21:45:55.192Z,0.00
2023-04-23T21:47:55.657Z,0.00
2023-04-23T21:49:55.988Z,0.00
2023-04-23T21:51:56.382Z,0.00
2023-04-23T21:53:56.782Z,0.00
2023-04-23T21:55:57.054Z,0.00
2023-04-23T21:58:06.278Z,0.00
2023-04-23T22:00:02.580Z,8.00
2023-04-23T22:02:04.736Z,0.00
2023-04-23T22:04:05.147Z,0.00
2023-04-23T22:06:05.589Z,0.00
2023-04-23T22:08:05.915Z,0.00
2023-04-23T22:10:06.254Z,0.00
2023-04-23T22:12:06.887Z,0.00
2023-04-23T22:14:07.394Z,0.00
2023-04-23T22:16:20.299Z,0.00
2023-04-23T22:18:13.014Z,0.00
2023-04-23T22:20:13.526Z,0.00
2023-04-23T22:22:14.096Z,0.00
2023-04-23T22:24:14.457Z,0.00
2023-04-23T22:26:14.726Z,0.00
2023-04-23T22:28:15.102Z,0.00
2023-04-23T22:30:15.417Z,0.00
2023-04-23T22:32:15.843Z,0.00
2023-04-23T22:34:16.201Z,0.00
2023-04-23T22:36:16.543Z,0.00
2023-04-23T22:38:16.876Z,0.00
2023-04-23T22:40:17.191Z,0.00
2023-04-23T22:42:17.488Z,0.00
2023-04-23T22:44:17.902Z,0.00
2023-04-23T22:46:18.374Z,0.00
2023-04-23T22:48:18.761Z,0.00
2023-04-23T22:50:19.189Z,0.00
2023-04-23T22:52:19.463Z,0.00
2023-04-23T22:54:19.728Z,0.00
2023-04-23T22:56:20.076Z,0.00
2023-04-23T22:58:20.390Z,0.00
2023-04-23T23:00:20.686Z,0.00
2023-04-23T23:02:21.099Z,0.00
2023-04-23T23:04:21.530Z,0.00
2023-04-23T23:06:22.018Z,0.00
2023-04-23T23:08:22.448Z,0.00
2023-04-23T23:10:23.185Z,0.00
2023-04-23T23:12:23.469Z,0.00
2023-04-23T23:14:23.772Z,0.00
2023-04-23T23:16:24.148Z,0.00
2023-04-23T23:18:24.506Z,0.00
2023-04-23T23:20:24.872Z,0.00
2023-04-23T23:22:25.343Z,0.00
2023-04-23T23:24:25.655Z,0.00
2023-04-23T23:26:25.988Z,0.00
2023-04-23T23:28:26.297Z,0.00
2023-04-23T23:30:26.578Z,0.00
2023-04-23T23:32:26.995Z,0.00
2023-04-23T23:34:27.280Z,0.00
2023-04-23T23:36:27.629Z,0.00
2023-04-23T23:38:27.981Z,0.00
2023-04-23T23:40:28.535Z,0.00
2023-04-23T23:42:28.877Z,0.00
2023-04-23T23:44:29.212Z,0.00
2023-04-23T23:46:29.622Z,0.00
2023-04-23T23:48:29.904Z,0.00
2023-04-23T23:50:30.209Z,0.00
2023-04-23T23:52:30.574Z,0.00
2023-04-23T23:54:30.855Z,0.00
2023-04-23T23:56:31.271Z,0.00
2023-04-23T23:58:31.828Z,0.00
